sensor_id;sensor_type;location;lat;lon;timestamp;P1;durP1;ratioP1;P2;durP2;ratioP2
19127;SDS011;9696;53.686;10.094;2023-04-25T00:00:38;10.13;;;3.00;;
19127;SDS011;9696;53.686;10.094;2023-04-25T00:03:09;9.30;;;2.80;;
19127;SDS011;9696;53.686;10.094;2023-04-25T00:05:38;4.50;;;2.50;;
19127;SDS011;9696;53.686;10.094;2023-04-25T00:08:08;6.93;;;2.70;;
19127;SDS011;9696;53.686;10.094;2023-04-25T00:10:40;6.60;;;2.77;;
19127;SDS011;9696;53.686;10.094;2023-04-25T00:13:09;6.23;;;2.33;;
19127;SDS011;9696;53.686;10.094;2023-04-25T00:15:45;5.83;;;2.33;;
19127;SDS011;9696;53.686;10.094;2023-04-25T00:18:15;7.40;;;2.70;;
19127;SDS011;9696;53.686;10.094;2023-04-25T00:20:44;11.07;;;2.33;;
19127;SDS011;9696;53.686;10.094;2023-04-25T00:23:14;8.53;;;2.53;;
19127;SDS011;9696;53.686;10.094;2023-04-25T00:25:47;9.53;;;2.53;;
19127;SDS011;9696;53.686;10.094;2023-04-25T00:28:18;11.17;;;2.80;;
19127;SDS011;9696;53.686;10.094;2023-04-25T00:30:49;13.70;;;3.50;;
19127;SDS011;9696;53.686;10.094;2023-04-25T00:33:18;12.23;;;2.83;;
19127;SDS011;9696;53.686;10.094;2023-04-25T00:35:48;19.83;;;3.50;;
19127;SDS011;9696;53.686;10.094;2023-04-25T00:38:17;9.73;;;3.07;;
19127;SDS011;9696;53.686;10.094;2023-04-25T00:40:48;14.20;;;2.87;;
19127;SDS011;9696;53.686;10.094;2023-04-25T00:43:19;13.53;;;3.23;;
19127;SDS011;9696;53.686;10.094;2023-04-25T00:45:51;10.07;;;2.97;;
19127;SDS011;9696;53.686;10.094;2023-04-25T00:48:22;14.47;;;2.87;;
19127;SDS011;9696;53.686;10.094;2023-04-25T00:50:55;16.07;;;3.03;;
19127;SDS011;9696;53.686;10.094;2023-04-25T00:53:27;14.63;;;2.60;;
19127;SDS011;9696;53.686;10.094;2023-04-25T00:56:03;12.73;;;2.60;;
19127;SDS011;9696;53.686;10.094;2023-04-25T00:58:32;10.50;;;2.57;;
19127;SDS011;9696;53.686;10.094;2023-04-25T01:01:03;17.23;;;2.77;;
19127;SDS011;9696;53.686;10.094;2023-04-25T01:03:35;12.03;;;2.27;;
19127;SDS011;9696;53.686;10.094;2023-04-25T01:06:09;16.70;;;3.20;;
19127;SDS011;9696;53.686;10.094;2023-04-25T01:08:44;14.43;;;2.50;;
19127;SDS011;9696;53.686;10.094;2023-04-25T01:11:17;19.70;;;2.90;;
19127;SDS011;9696;53.686;10.094;2023-04-25T01:13:51;10.33;;;2.43;;
19127;SDS011;9696;53.686;10.094;2023-04-25T01:16:21;9.07;;;2.77;;
19127;SDS011;9696;53.686;10.094;2023-04-25T01:18:52;10.60;;;2.60;;
19127;SDS011;9696;53.686;10.094;2023-04-25T01:21:23;11.20;;;2.70;;
19127;SDS011;9696;53.686;10.094;2023-04-25T01:23:56;20.13;;;2.93;;
19127;SDS011;9696;53.686;10.094;2023-04-25T01:26:26;8.17;;;2.03;;
19127;SDS011;9696;53.686;10.094;2023-04-25T01:28:57;9.00;;;2.80;;
19127;SDS011;9696;53.686;10.094;2023-04-25T01:31:27;13.30;;;2.97;;
19127;SDS011;9696;53.686;10.094;2023-04-25T01:33:59;12.47;;;3.00;;
19127;SDS011;9696;53.686;10.094;2023-04-25T01:36:30;13.03;;;2.83;;
19127;SDS011;9696;53.686;10.094;2023-04-25T01:38:59;16.43;;;2.63;;
19127;SDS011;9696;53.686;10.094;2023-04-25T01:41:31;11.23;;;3.10;;
19127;SDS011;9696;53.686;10.094;2023-04-25T01:44:04;13.17;;;2.93;;
19127;SDS011;9696;53.686;10.094;2023-04-25T01:46:35;9.33;;;3.20;;
19127;SDS011;9696;53.686;10.094;2023-04-25T01:49:05;10.17;;;2.70;;
19127;SDS011;9696;53.686;10.094;2023-04-25T01:51:36;20.03;;;2.83;;
19127;SDS011;9696;53.686;10.094;2023-04-25T01:54:05;9.60;;;2.90;;
19127;SDS011;9696;53.686;10.094;2023-04-25T01:56:38;20.53;;;3.03;;
19127;SDS011;9696;53.686;10.094;2023-04-25T01:59:10;11.73;;;2.50;;
19127;SDS011;9696;53.686;10.094;2023-04-25T02:01:49;18.13;;;3.17;;
19127;SDS011;9696;53.686;10.094;2023-04-25T02:04:25;19.83;;;3.00;;
19127;SDS011;9696;53.686;10.094;2023-04-25T02:06:56;13.87;;;2.70;;
19127;SDS011;9696;53.686;10.094;2023-04-25T02:09:35;20.90;;;2.83;;
19127;SDS011;9696;53.686;10.094;2023-04-25T02:12:07;16.53;;;3.63;;
19127;SDS011;9696;53.686;10.094;2023-04-25T02:15:04;9.53;;;2.47;;
19127;SDS011;9696;53.686;10.094;2023-04-25T02:17:44;17.93;;;3.07;;
19127;SDS011;9696;53.686;10.094;2023-04-25T02:20:14;13.37;;;2.87;;
19127;SDS011;9696;53.686;10.094;2023-04-25T02:22:45;20.53;;;3.20;;
19127;SDS011;9696;53.686;10.094;2023-04-25T02:25:15;13.83;;;3.40;;
19127;SDS011;9696;53.686;10.094;2023-04-25T02:27:46;18.63;;;2.67;;
19127;SDS011;9696;53.686;10.094;2023-04-25T02:30:21;9.53;;;2.70;;
19127;SDS011;9696;53.686;10.094;2023-04-25T02:32:53;10.80;;;2.80;;
19127;SDS011;9696;53.686;10.094;2023-04-25T02:38:02;13.10;;;2.70;;
19127;SDS011;9696;53.686;10.094;2023-04-25T02:40:32;22.17;;;3.53;;
19127;SDS011;9696;53.686;10.094;2023-04-25T02:43:02;17.63;;;3.20;;
19127;SDS011;9696;53.686;10.094;2023-04-25T02:45:32;10.63;;;2.17;;
19127;SDS011;9696;53.686;10.094;2023-04-25T02:48:04;6.03;;;2.57;;
19127;SDS011;9696;53.686;10.094;2023-04-25T02:50:35;9.10;;;2.50;;
19127;SDS011;9696;53.686;10.094;2023-04-25T02:53:08;9.70;;;2.40;;
19127;SDS011;9696;53.686;10.094;2023-04-25T02:55:44;11.40;;;2.87;;
19127;SDS011;9696;53.686;10.094;2023-04-25T02:58:13;15.93;;;2.77;;
19127;SDS011;9696;53.686;10.094;2023-04-25T03:00:47;16.30;;;3.03;;
19127;SDS011;9696;53.686;10.094;2023-04-25T03:03:17;15.80;;;2.93;;
19127;SDS011;9696;53.686;10.094;2023-04-25T03:05:49;16.63;;;2.73;;
19127;SDS011;9696;53.686;10.094;2023-04-25T03:08:25;19.60;;;3.47;;
19127;SDS011;9696;53.686;10.094;2023-04-25T03:11:00;11.23;;;2.33;;
19127;SDS011;9696;53.686;10.094;2023-04-25T03:13:30;11.60;;;3.37;;
19127;SDS011;9696;53.686;10.094;2023-04-25T03:15:59;8.60;;;2.17;;
19127;SDS011;9696;53.686;10.094;2023-04-25T03:18:30;7.43;;;2.27;;
19127;SDS011;9696;53.686;10.094;2023-04-25T03:20:59;17.07;;;2.93;;
19127;SDS011;9696;53.686;10.094;2023-04-25T03:26:30;9.83;;;2.90;;
19127;SDS011;9696;53.686;10.094;2023-04-25T03:28:59;22.53;;;3.60;;
19127;SDS011;9696;53.686;10.094;2023-04-25T03:31:36;13.03;;;2.70;;
19127;SDS011;9696;53.686;10.094;2023-04-25T03:34:09;11.03;;;2.90;;
19127;SDS011;9696;53.686;10.094;2023-04-25T03:36:38;12.03;;;3.03;;
19127;SDS011;9696;53.686;10.094;2023-04-25T03:39:10;16.33;;;3.07;;
19127;SDS011;9696;53.686;10.094;2023-04-25T03:41:45;17.30;;;3.20;;
19127;SDS011;9696;53.686;10.094;2023-04-25T03:44:17;16.00;;;3.23;;
19127;SDS011;9696;53.686;10.094;2023-04-25T03:46:48;19.47;;;3.13;;
19127;SDS011;9696;53.686;10.094;2023-04-25T03:49:20;11.93;;;2.63;;
19127;SDS011;9696;53.686;10.094;2023-04-25T03:52:03;13.60;;;2.27;;
19127;SDS011;9696;53.686;10.094;2023-04-25T03:54:38;13.23;;;3.13;;
19127;SDS011;9696;53.686;10.094;2023-04-25T03:57:11;20.37;;;2.80;;
19127;SDS011;9696;53.686;10.094;2023-04-25T03:59:43;13.87;;;2.70;;
19127;SDS011;9696;53.686;10.094;2023-04-25T04:02:14;12.57;;;2.27;;
19127;SDS011;9696;53.686;10.094;2023-04-25T04:04:46;18.47;;;3.13;;
19127;SDS011;9696;53.686;10.094;2023-04-25T04:07:16;11.13;;;2.50;;
19127;SDS011;9696;53.686;10.094;2023-04-25T04:09:50;12.70;;;2.73;;
19127;SDS011;9696;53.686;10.094;2023-04-25T04:12:26;13.47;;;2.83;;
19127;SDS011;9696;53.686;10.094;2023-04-25T04:14:56;8.40;;;2.70;;
19127;SDS011;9696;53.686;10.094;2023-04-25T04:17:26;15.77;;;2.77;;
19127;SDS011;9696;53.686;10.094;2023-04-25T04:19:57;14.00;;;2.90;;
19127;SDS011;9696;53.686;10.094;2023-04-25T04:22:30;11.70;;;2.17;;
19127;SDS011;9696;53.686;10.094;2023-04-25T04:25:07;7.97;;;2.57;;
19127;SDS011;9696;53.686;10.094;2023-04-25T04:28:04;11.07;;;2.80;;
19127;SDS011;9696;53.686;10.094;2023-04-25T04:30:49;19.57;;;2.60;;
19127;SDS011;9696;53.686;10.094;2023-04-25T04:33:19;7.90;;;2.97;;
19127;SDS011;9696;53.686;10.094;2023-04-25T04:35:56;9.40;;;2.20;;
19127;SDS011;9696;53.686;10.094;2023-04-25T04:38:33;11.50;;;2.17;;
19127;SDS011;9696;53.686;10.094;2023-04-25T04:41:11;8.00;;;2.43;;
19127;SDS011;9696;53.686;10.094;2023-04-25T04:43:59;10.50;;;2.33;;
19127;SDS011;9696;53.686;10.094;2023-04-25T04:47:03;15.00;;;2.10;;
19127;SDS011;9696;53.686;10.094;2023-04-25T04:49:57;14.30;;;2.43;;
19127;SDS011;9696;53.686;10.094;2023-04-25T04:52:39;12.43;;;2.63;;
19127;SDS011;9696;53.686;10.094;2023-04-25T04:55:47;7.33;;;1.97;;
19127;SDS011;9696;53.686;10.094;2023-04-25T04:58:50;12.03;;;2.27;;
19127;SDS011;9696;53.686;10.094;2023-04-25T05:01:43;11.30;;;1.97;;
19127;SDS011;9696;53.686;10.094;2023-04-25T05:04:26;10.50;;;2.30;;
19127;SDS011;9696;53.686;10.094;2023-04-25T05:07:25;4.43;;;1.60;;
19127;SDS011;9696;53.686;10.094;2023-04-25T05:10:07;8.53;;;2.20;;
19127;SDS011;9696;53.686;10.094;2023-04-25T05:12:44;10.03;;;2.40;;
19127;SDS011;9696;53.686;10.094;2023-04-25T05:15:42;14.37;;;2.40;;
19127;SDS011;9696;53.686;10.094;2023-04-25T05:18:26;7.93;;;2.47;;
19127;SDS011;9696;53.686;10.094;2023-04-25T05:21:06;13.83;;;2.17;;
19127;SDS011;9696;53.686;10.094;2023-04-25T05:24:02;12.53;;;1.90;;
19127;SDS011;9696;53.686;10.094;2023-04-25T05:26:51;19.23;;;2.33;;
19127;SDS011;9696;53.686;10.094;2023-04-25T05:29:28;13.53;;;4.00;;
19127;SDS011;9696;53.686;10.094;2023-04-25T05:32:22;12.83;;;2.70;;
19127;SDS011;9696;53.686;10.094;2023-04-25T05:34:52;4.23;;;1.57;;
19127;SDS011;9696;53.686;10.094;2023-04-25T05:37:30;5.27;;;1.60;;
19127;SDS011;9696;53.686;10.094;2023-04-25T05:40:11;10.17;;;2.03;;
19127;SDS011;9696;53.686;10.094;2023-04-25T05:42:43;8.73;;;1.80;;
19127;SDS011;9696;53.686;10.094;2023-04-25T05:45:33;6.77;;;2.03;;
19127;SDS011;9696;53.686;10.094;2023-04-25T05:48:10;6.17;;;1.60;;
19127;SDS011;9696;53.686;10.094;2023-04-25T05:50:58;8.93;;;1.67;;
19127;SDS011;9696;53.686;10.094;2023-04-25T05:53:51;7.73;;;1.57;;
19127;SDS011;9696;53.686;10.094;2023-04-25T05:56:21;6.43;;;2.07;;
19127;SDS011;9696;53.686;10.094;2023-04-25T05:58:53;4.87;;;1.60;;
19127;SDS011;9696;53.686;10.094;2023-04-25T06:01:28;11.40;;;2.70;;
19127;SDS011;9696;53.686;10.094;2023-04-25T06:04:00;11.63;;;2.20;;
19127;SDS011;9696;53.686;10.094;2023-04-25T06:06:33;8.33;;;1.80;;
19127;SDS011;9696;53.686;10.094;2023-04-25T06:09:02;6.53;;;1.13;;
19127;SDS011;9696;53.686;10.094;2023-04-25T06:11:32;7.03;;;1.97;;
19127;SDS011;9696;53.686;10.094;2023-04-25T06:14:03;6.33;;;1.70;;
19127;SDS011;9696;53.686;10.094;2023-04-25T06:16:34;10.53;;;2.60;;
19127;SDS011;9696;53.686;10.094;2023-04-25T06:19:07;11.30;;;1.57;;
19127;SDS011;9696;53.686;10.094;2023-04-25T06:21:37;9.37;;;1.93;;
19127;SDS011;9696;53.686;10.094;2023-04-25T06:24:09;7.17;;;1.57;;
19127;SDS011;9696;53.686;10.094;2023-04-25T06:26:39;9.27;;;1.60;;
19127;SDS011;9696;53.686;10.094;2023-04-25T06:29:08;9.63;;;1.50;;
19127;SDS011;9696;53.686;10.094;2023-04-25T06:31:51;10.90;;;1.97;;
19127;SDS011;9696;53.686;10.094;2023-04-25T06:35:03;7.80;;;1.70;;
19127;SDS011;9696;53.686;10.094;2023-04-25T06:37:33;7.90;;;1.53;;
19127;SDS011;9696;53.686;10.094;2023-04-25T06:40:04;2.40;;;1.20;;
19127;SDS011;9696;53.686;10.094;2023-04-25T06:42:36;11.23;;;1.80;;
19127;SDS011;9696;53.686;10.094;2023-04-25T06:45:24;20.97;;;2.37;;
19127;SDS011;9696;53.686;10.094;2023-04-25T06:47:54;8.50;;;1.80;;
19127;SDS011;9696;53.686;10.094;2023-04-25T06:50:25;4.63;;;1.37;;
19127;SDS011;9696;53.686;10.094;2023-04-25T06:52:57;9.87;;;1.90;;
19127;SDS011;9696;53.686;10.094;2023-04-25T06:55:29;10.63;;;1.63;;
19127;SDS011;9696;53.686;10.094;2023-04-25T06:58:08;14.80;;;2.00;;
19127;SDS011;9696;53.686;10.094;2023-04-25T07:01:01;10.70;;;1.93;;
19127;SDS011;9696;53.686;10.094;2023-04-25T07:03:31;6.83;;;1.40;;
19127;SDS011;9696;53.686;10.094;2023-04-25T07:06:09;7.83;;;1.87;;
19127;SDS011;9696;53.686;10.094;2023-04-25T07:08:38;9.07;;;2.13;;
19127;SDS011;9696;53.686;10.094;2023-04-25T07:11:10;7.03;;;1.93;;
19127;SDS011;9696;53.686;10.094;2023-04-25T07:13:41;4.60;;;1.53;;
19127;SDS011;9696;53.686;10.094;2023-04-25T07:16:11;11.67;;;2.10;;
19127;SDS011;9696;53.686;10.094;2023-04-25T07:18:46;6.47;;;1.60;;
19127;SDS011;9696;53.686;10.094;2023-04-25T07:21:18;9.37;;;1.67;;
19127;SDS011;9696;53.686;10.094;2023-04-25T07:23:50;7.10;;;1.40;;
19127;SDS011;9696;53.686;10.094;2023-04-25T07:26:25;7.57;;;1.03;;
19127;SDS011;9696;53.686;10.094;2023-04-25T07:29:23;7.17;;;1.30;;
19127;SDS011;9696;53.686;10.094;2023-04-25T07:31:53;4.33;;;1.10;;
19127;SDS011;9696;53.686;10.094;2023-04-25T07:34:30;8.40;;;1.90;;
19127;SDS011;9696;53.686;10.094;2023-04-25T07:37:08;5.17;;;1.13;;
19127;SDS011;9696;53.686;10.094;2023-04-25T07:39:51;7.87;;;1.37;;
19127;SDS011;9696;53.686;10.094;2023-04-25T07:42:23;12.27;;;1.50;;
19127;SDS011;9696;53.686;10.094;2023-04-25T07:44:54;7.60;;;1.53;;
19127;SDS011;9696;53.686;10.094;2023-04-25T07:47:26;10.47;;;1.83;;
19127;SDS011;9696;53.686;10.094;2023-04-25T07:49:56;2.73;;;0.90;;
19127;SDS011;9696;53.686;10.094;2023-04-25T07:52:27;12.43;;;1.57;;
19127;SDS011;9696;53.686;10.094;2023-04-25T07:55:05;4.23;;;1.13;;
19127;SDS011;9696;53.686;10.094;2023-04-25T07:57:48;3.87;;;1.10;;
19127;SDS011;9696;53.686;10.094;2023-04-25T08:00:19;4.10;;;1.03;;
19127;SDS011;9696;53.686;10.094;2023-04-25T08:03:05;4.47;;;1.27;;
19127;SDS011;9696;53.686;10.094;2023-04-25T08:05:38;4.93;;;1.23;;
19127;SDS011;9696;53.686;10.094;2023-04-25T08:08:09;14.70;;;1.50;;
19127;SDS011;9696;53.686;10.094;2023-04-25T08:10:39;10.60;;;1.40;;
19127;SDS011;9696;53.686;10.094;2023-04-25T08:13:09;5.10;;;1.37;;
19127;SDS011;9696;53.686;10.094;2023-04-25T08:15:39;8.13;;;1.27;;
19127;SDS011;9696;53.686;10.094;2023-04-25T08:18:11;13.80;;;1.43;;
19127;SDS011;9696;53.686;10.094;2023-04-25T08:20:46;4.77;;;1.40;;
19127;SDS011;9696;53.686;10.094;2023-04-25T08:23:19;8.17;;;1.40;;
19127;SDS011;9696;53.686;10.094;2023-04-25T08:26:12;4.57;;;1.13;;
19127;SDS011;9696;53.686;10.094;2023-04-25T08:28:42;8.10;;;1.53;;
19127;SDS011;9696;53.686;10.094;2023-04-25T08:31:13;8.50;;;1.83;;
19127;SDS011;9696;53.686;10.094;2023-04-25T08:33:52;10.20;;;1.10;;
19127;SDS011;9696;53.686;10.094;2023-04-25T08:36:45;11.87;;;1.20;;
19127;SDS011;9696;53.686;10.094;2023-04-25T08:39:38;7.93;;;1.17;;
19127;SDS011;9696;53.686;10.094;2023-04-25T08:42:38;7.93;;;1.20;;
19127;SDS011;9696;53.686;10.094;2023-04-25T08:45:10;5.93;;;1.27;;
19127;SDS011;9696;53.686;10.094;2023-04-25T08:47:42;16.43;;;1.80;;
19127;SDS011;9696;53.686;10.094;2023-04-25T08:50:15;8.23;;;1.23;;
19127;SDS011;9696;53.686;10.094;2023-04-25T08:52:48;9.77;;;1.40;;
19127;SDS011;9696;53.686;10.094;2023-04-25T08:55:23;4.65;;;1.50;;
19127;SDS011;9696;53.686;10.094;2023-04-25T08:57:57;6.45;;;1.30;;
19127;SDS011;9696;53.686;10.094;2023-04-25T09:00:29;11.35;;;1.55;;
19127;SDS011;9696;53.686;10.094;2023-04-25T09:02:59;12.88;;;1.88;;
19127;SDS011;9696;53.686;10.094;2023-04-25T09:05:32;7.97;;;1.50;;
